Aeroporto :
LOGIN :

Iscrizione | Disclaimer

   EN    FR    IT 

 










Sommario :    VFR   VFR Marginale   IFR   IFR Intensivo   IFR Molto Intensivo
Visibilità : 
Base nubi : 
>= 8 km
>= 3000ft
5 / 8 km
1000 / 3000 ft
1500m / 5 km
500 / 1000 ft
800 / 1500m
200 / 500 ft
< 800m
< 200 ft
Simboli :   Temporali  Nebbia  Neve Forte  Precipitazioni Forti  Vento > 20 kt
SIGMETs :   Varie  Temporali  Ghiacco  Turbolenza  Onda orograficha  Ceneri Vulcaniche






- Altitudine del aeroporto : 1742 ft
- Codice IATA : SOF


LBSF - Sofia Int.

ULTIMO METAR :
  • 062200Z 09003KT CAVOK 03/M03 Q1031 NOSIG

METARs OBSOLETI :
  • 062130Z 07004KT CAVOK 03/M03 Q1031 NOSIG
  • 062100Z 08005KT 060V120 CAVOK 04/M03 Q1031 NOSIG
  • 062030Z 08005KT 040V110 CAVOK 04/M03 Q1030 NOSIG
  • 062000Z 11005KT CAVOK 04/M04 Q1030 NOSIG
  • 061930Z 14004KT 090V170 CAVOK 06/M04 Q1030 NOSIG

TAF TAF LBSF
Valido dal 06 a 18 ore il 07 a 18 ore UTC


061700Z 0618/0718 05014KT 9999 SCT070
BECMG 0618/0620 12008KT
PROB40
TEMPO 0702/0705 3000 BR NSC
BECMG 0708/0710 06014KT



MetMap, La meteo Aeronautica in un colpo d'occhio ! - Copyright ORBIFLY Dicembre 2007 - Disclaimer

ORBIFLY MET'MAP TEAM :

Programmazione e sviluppo : Alexandra Zaïnal
Concezione : Baudouin d'Aumeries
Aiuto per la programmazione : Marc-Olivier Méhu
Supporto tecnico e logistico : Manuel Goepfert
Aiuto per la traduzione : Arnaldo La Scala

Contatto : metmap@orbifly.com




FONTI E CREDITI :

   NOAA